This is the latest recevied weather packets stored in our database for station/object N4PWG. If no packets are shown the sender has not sent any weather packets the latest 10 day(s).
| Time | Temp. | Humidity | Pressure | Rain* | Wind** | Luminosity | Snow |
|---|---|---|---|---|---|---|---|
| 1777566699 | 17.22° C | 46% | 1035.9 hPa | 0 mm | - | 547 W/m² | - |
| 1777566397 | 17.22° C | 43% | 1035.6 hPa | 0 mm | - | 605 W/m² | - |
| 1777566094 | 16.67° C | 46% | 1035.8 hPa | 0 mm | - | 523 W/m² | - |
| 1777565789 | 16.67° C | 47% | 1035.9 hPa | 0 mm | - | 523 W/m² | - |
| 1777565486 | 16.67° C | 50% | 1035.7 hPa | 0 mm | - | 521 W/m² | - |
| 1777565182 | 16.11° C | 47% | 1035.5 hPa | 0 mm | - | 422 W/m² | - |
| 1777564879 | 16.11° C | 47% | 1035.6 hPa | 0 mm | - | 430 W/m² | - |
| 1777564579 | 16.67° C | 47% | 1035.5 hPa | 0 mm | - | 479 W/m² | - |
| 1777564275 | 16.11° C | 48% | 1035.4 hPa | 0 mm | - | 406 W/m² | - |
| 1777563971 | 15.56° C | 47% | 1035.3 hPa | 0 mm | - | 346 W/m² | - |
| 1777563668 | 15.56° C | 50% | 1035.7 hPa | 0 mm | - | 359 W/m² | - |
| 1777563362 | 16.11° C | 49% | 1035.4 hPa | 0 mm | - | 340 W/m² | - |
| 1777563058 | 16.11° C | 50% | 1035.5 hPa | 0 mm | - | 360 W/m² | - |
| 1777562754 | 15.56° C | 50% | 1035.2 hPa | 0 mm | - | 354 W/m² | - |
| 1777562453 | 16.11° C | 52% | 1035.4 hPa | 0 mm | - | 354 W/m² | - |
| 1777562150 | 15.56° C | 47% | 1035 hPa | 0 mm | - | 372 W/m² | - |
| 1777561847 | 16.11° C | 51% | 1035.1 hPa | 0 mm | - | 419 W/m² | - |
| 1777561544 | 15.56° C | 50% | 1035.2 hPa | 0 mm | - | 448 W/m² | - |
| 1777561239 | 15.56° C | 54% | 1035.3 hPa | 0 mm | - | 344 W/m² | - |
| 1777560938 | 15.56° C | 54% | 1035.4 hPa | 0 mm | - | 370 W/m² | - |
| 1777560635 | 15.56° C | 56% | 1035.6 hPa | 0 mm | - | 291 W/m² | - |
| 1777560333 | 15.56° C | 57% | 1035.6 hPa | 0 mm | - | 364 W/m² | - |
| 1777560031 | 15.56° C | 54% | 1035.4 hPa | 0 mm | - | 304 W/m² | - |
| 1777559726 | 15.56° C | 54% | 1035.7 hPa | 0 mm | - | 344 W/m² | - |
| 1777559424 | 15.56° C | 53% | 1035.4 hPa | 0 mm | - | 380 W/m² | - |
* Rain latest hour (hover to see other rain measurements)
** Current wind speed in m/s (hover to see current wind gust speed)